Point Salines, Grenada

6:18 AM AST on August 28, 2014 (GMT -0400)
Point Salines International | Change Station
CLOSE
Current Station
Airport
Location: Point Salines,
Elevation: 23 ft
Nearby Weather Stations

Elev 23 ft 12.00 °N, 61.79 °W | Updated 18 minutes ago

Scattered Clouds
Scattered Clouds
82 °F
Feels Like 91 °F
N
13
Wind Variable Wind from ESE

Today
High -- | Low -- °F
--% Chance of Precip.
Yesterday
High -- | Low -- °F
Precip. -- in
5:56 AM 6:19 PM
Waxing Crescent, 7% visible
Pressure 29.92 in
Visibility 6.2 miles
Clouds Scattered Clouds 1900 ft
Heat Index 91 °F
Dew Point 77 °F
Humidity 84%
Rainfall 0.00 in
Snow Depth Not available.
UV 0 out of 12
Pollen Not available.
Air Quality Not available.
Flu Activity Not available.
METAR TGPY 281000Z 12011KT 9999 SCT019 28/25 Q1013 NOSIG

More Conditions Fewer Conditions

Pressure 29.92 in
Visibility 6.2 miles
Clouds Scattered Clouds 1900 ft
Heat Index 91 °F
Dew Point 77 °F
Humidity 84%
Rainfall 0.00 in
Snow Depth Not available.
UV 0 out of 12
Pollen Not available.
Air Quality Not available.
Flu Activity Not available.
METAR TGPY 281000Z 12011KT 9999 SCT019 28/25 Q1013 NOSIG

More Conditions Fewer Conditions

10-Day Weather Forecast

Almanac

Astronomy

Aug. 28, 2014 Rise Set
Actual Time 5:56 AM AST 6:19 PM AST
Civil Twilight 5:35 AM AST 6:41 PM AST
Nautical Twilight 5:10 AM AST 7:06 PM AST
Astronomical Twilight 4:44 AM AST 7:31 PM AST
Moon 8:08 AM AST 8:21 PM AST
Length of Visible Light 13h 06m
Length of Day
12h 23m
Tomorrow will be 0m 38s shorter.
Waxing Crescent, 7% of the Moon is Illuminated
Today
Waxing Crescent
Sep 2
First Quarter
Sep 8
Full
Sep 15
Last Quarter
Sep 24
New

Yesterday's Extremes

Country Highs Country Lows

Community

WunderPhotos

Upload Photos

1,747,919 photos uploaded!

Nearby

Snow Depth

Not available.

Earthquake Activity

City Distance Mag. Time & Date
No recent earthquake activity has been reported nearby.
Minimum magnitude displayed is 2.5.

Coastal Water Temperatures

Place Temperature
No Stations Reporting

Nearby Weather Stations